sensor_id;sensor_type;location;lat;lon;timestamp;P1;durP1;ratioP1;P2;durP2;ratioP2
12535;SDS011;6334;48.696;2.114;2022-09-28T00:01:34;5.17;;;1.87;;
12535;SDS011;6334;48.696;2.114;2022-09-28T00:04:05;8.00;;;2.20;;
12535;SDS011;6334;48.696;2.114;2022-09-28T00:06:35;4.77;;;2.00;;
12535;SDS011;6334;48.696;2.114;2022-09-28T00:09:06;2.53;;;1.30;;
12535;SDS011;6334;48.696;2.114;2022-09-28T00:11:36;5.50;;;1.87;;
12535;SDS011;6334;48.696;2.114;2022-09-28T00:14:07;5.50;;;2.13;;
12535;SDS011;6334;48.696;2.114;2022-09-28T00:16:41;4.17;;;1.57;;
12535;SDS011;6334;48.696;2.114;2022-09-28T00:19:11;6.07;;;1.80;;
12535;SDS011;6334;48.696;2.114;2022-09-28T00:21:41;6.67;;;2.03;;
12535;SDS011;6334;48.696;2.114;2022-09-28T00:24:12;4.37;;;1.97;;
12535;SDS011;6334;48.696;2.114;2022-09-28T00:26:51;4.93;;;1.90;;
12535;SDS011;6334;48.696;2.114;2022-09-28T00:29:19;5.57;;;2.10;;
12535;SDS011;6334;48.696;2.114;2022-09-28T00:31:56;5.00;;;1.77;;
12535;SDS011;6334;48.696;2.114;2022-09-28T00:34:25;4.23;;;1.53;;
12535;SDS011;6334;48.696;2.114;2022-09-28T00:36:55;4.07;;;1.97;;
12535;SDS011;6334;48.696;2.114;2022-09-28T00:39:26;3.73;;;1.73;;
12535;SDS011;6334;48.696;2.114;2022-09-28T00:42:01;4.67;;;2.23;;
12535;SDS011;6334;48.696;2.114;2022-09-28T00:47:07;4.27;;;1.60;;
12535;SDS011;6334;48.696;2.114;2022-09-28T00:49:59;5.00;;;2.07;;
12535;SDS011;6334;48.696;2.114;2022-09-28T00:52:32;4.83;;;2.00;;
12535;SDS011;6334;48.696;2.114;2022-09-28T00:55:02;6.00;;;2.47;;
12535;SDS011;6334;48.696;2.114;2022-09-28T00:57:31;5.10;;;2.00;;
12535;SDS011;6334;48.696;2.114;2022-09-28T01:00:03;5.03;;;1.97;;
12535;SDS011;6334;48.696;2.114;2022-09-28T01:02:32;4.10;;;1.67;;
12535;SDS011;6334;48.696;2.114;2022-09-28T01:05:03;5.93;;;1.60;;
12535;SDS011;6334;48.696;2.114;2022-09-28T01:07:33;3.80;;;1.80;;
12535;SDS011;6334;48.696;2.114;2022-09-28T01:10:04;3.07;;;1.70;;
12535;SDS011;6334;48.696;2.114;2022-09-28T01:12:34;5.40;;;2.10;;
12535;SDS011;6334;48.696;2.114;2022-09-28T01:15:05;5.77;;;2.00;;
12535;SDS011;6334;48.696;2.114;2022-09-28T01:17:37;4.53;;;2.17;;
12535;SDS011;6334;48.696;2.114;2022-09-28T01:20:11;2.30;;;1.43;;
12535;SDS011;6334;48.696;2.114;2022-09-28T01:25:39;2.70;;;2.03;;
12535;SDS011;6334;48.696;2.114;2022-09-28T01:28:11;4.97;;;1.67;;
12535;SDS011;6334;48.696;2.114;2022-09-28T01:31:00;2.83;;;1.90;;
12535;SDS011;6334;48.696;2.114;2022-09-28T01:33:43;2.40;;;1.93;;
12535;SDS011;6334;48.696;2.114;2022-09-28T01:36:17;3.93;;;1.73;;
12535;SDS011;6334;48.696;2.114;2022-09-28T01:38:45;4.50;;;1.97;;
12535;SDS011;6334;48.696;2.114;2022-09-28T01:41:15;2.20;;;1.53;;
12535;SDS011;6334;48.696;2.114;2022-09-28T01:43:56;4.10;;;1.67;;
12535;SDS011;6334;48.696;2.114;2022-09-28T01:46:28;6.03;;;2.00;;
12535;SDS011;6334;48.696;2.114;2022-09-28T01:48:57;4.83;;;2.03;;
12535;SDS011;6334;48.696;2.114;2022-09-28T01:51:31;4.00;;;1.63;;
12535;SDS011;6334;48.696;2.114;2022-09-28T01:54:24;6.67;;;2.20;;
12535;SDS011;6334;48.696;2.114;2022-09-28T01:56:47;6.93;;;2.30;;
12535;SDS011;6334;48.696;2.114;2022-09-28T01:59:17;4.77;;;1.60;;
12535;SDS011;6334;48.696;2.114;2022-09-28T02:04:41;5.53;;;1.80;;
12535;SDS011;6334;48.696;2.114;2022-09-28T02:07:17;4.77;;;1.80;;
12535;SDS011;6334;48.696;2.114;2022-09-28T02:09:47;6.03;;;1.67;;
12535;SDS011;6334;48.696;2.114;2022-09-28T02:15:00;4.97;;;1.73;;
12535;SDS011;6334;48.696;2.114;2022-09-28T02:17:29;5.37;;;1.87;;
12535;SDS011;6334;48.696;2.114;2022-09-28T02:19:59;5.90;;;1.80;;
12535;SDS011;6334;48.696;2.114;2022-09-28T02:22:35;3.47;;;1.63;;
12535;SDS011;6334;48.696;2.114;2022-09-28T02:27:52;5.63;;;2.03;;
12535;SDS011;6334;48.696;2.114;2022-09-28T02:30:30;5.83;;;2.07;;
12535;SDS011;6334;48.696;2.114;2022-09-28T02:33:04;5.40;;;2.00;;
12535;SDS011;6334;48.696;2.114;2022-09-28T02:35:40;3.43;;;1.77;;
12535;SDS011;6334;48.696;2.114;2022-09-28T02:38:10;2.97;;;1.40;;
12535;SDS011;6334;48.696;2.114;2022-09-28T02:40:43;4.93;;;1.60;;
12535;SDS011;6334;48.696;2.114;2022-09-28T02:43:25;6.77;;;2.40;;
12535;SDS011;6334;48.696;2.114;2022-09-28T02:51:48;5.70;;;2.17;;
12535;SDS011;6334;48.696;2.114;2022-09-28T02:54:30;5.03;;;1.93;;
12535;SDS011;6334;48.696;2.114;2022-09-28T03:00:04;4.00;;;1.50;;
12535;SDS011;6334;48.696;2.114;2022-09-28T03:11:15;5.60;;;2.13;;
12535;SDS011;6334;48.696;2.114;2022-09-28T03:13:44;5.57;;;2.30;;
12535;SDS011;6334;48.696;2.114;2022-09-28T03:16:15;1.47;;;1.27;;
12535;SDS011;6334;48.696;2.114;2022-09-28T03:18:46;3.77;;;1.83;;
12535;SDS011;6334;48.696;2.114;2022-09-28T03:21:16;2.77;;;1.57;;
12535;SDS011;6334;48.696;2.114;2022-09-28T03:23:46;2.63;;;1.50;;
12535;SDS011;6334;48.696;2.114;2022-09-28T03:26:17;4.07;;;1.97;;
12535;SDS011;6334;48.696;2.114;2022-09-28T03:28:48;5.20;;;2.10;;
12535;SDS011;6334;48.696;2.114;2022-09-28T03:31:19;6.37;;;1.87;;
12535;SDS011;6334;48.696;2.114;2022-09-28T03:33:50;5.23;;;2.03;;
12535;SDS011;6334;48.696;2.114;2022-09-28T03:36:20;2.00;;;1.40;;
12535;SDS011;6334;48.696;2.114;2022-09-28T03:38:51;5.90;;;2.30;;
12535;SDS011;6334;48.696;2.114;2022-09-28T03:41:22;6.30;;;2.13;;
12535;SDS011;6334;48.696;2.114;2022-09-28T03:43:55;3.63;;;1.67;;
12535;SDS011;6334;48.696;2.114;2022-09-28T03:46:25;5.07;;;2.33;;
12535;SDS011;6334;48.696;2.114;2022-09-28T03:48:56;4.17;;;1.90;;
12535;SDS011;6334;48.696;2.114;2022-09-28T03:51:26;3.63;;;2.10;;
12535;SDS011;6334;48.696;2.114;2022-09-28T03:53:57;3.87;;;1.73;;
12535;SDS011;6334;48.696;2.114;2022-09-28T03:56:27;4.03;;;1.37;;
12535;SDS011;6334;48.696;2.114;2022-09-28T03:58:58;2.63;;;1.67;;
12535;SDS011;6334;48.696;2.114;2022-09-28T04:01:28;3.43;;;1.70;;
12535;SDS011;6334;48.696;2.114;2022-09-28T04:03:59;5.37;;;2.00;;
12535;SDS011;6334;48.696;2.114;2022-09-28T04:06:29;7.63;;;2.00;;
12535;SDS011;6334;48.696;2.114;2022-09-28T04:09:00;4.73;;;1.60;;
12535;SDS011;6334;48.696;2.114;2022-09-28T04:11:30;2.87;;;1.40;;
12535;SDS011;6334;48.696;2.114;2022-09-28T04:14:01;4.00;;;1.70;;
12535;SDS011;6334;48.696;2.114;2022-09-28T04:16:31;5.43;;;2.00;;
12535;SDS011;6334;48.696;2.114;2022-09-28T04:19:03;6.57;;;2.10;;
12535;SDS011;6334;48.696;2.114;2022-09-28T04:21:33;5.43;;;2.10;;
12535;SDS011;6334;48.696;2.114;2022-09-28T04:24:03;3.27;;;1.30;;
12535;SDS011;6334;48.696;2.114;2022-09-28T04:26:35;4.57;;;1.77;;
12535;SDS011;6334;48.696;2.114;2022-09-28T04:29:09;2.07;;;1.47;;
12535;SDS011;6334;48.696;2.114;2022-09-28T04:31:45;5.43;;;1.83;;
12535;SDS011;6334;48.696;2.114;2022-09-28T04:34:16;2.80;;;1.47;;
12535;SDS011;6334;48.696;2.114;2022-09-28T04:36:46;2.83;;;1.30;;
12535;SDS011;6334;48.696;2.114;2022-09-28T04:39:16;3.90;;;1.53;;
12535;SDS011;6334;48.696;2.114;2022-09-28T04:41:47;4.80;;;1.83;;
12535;SDS011;6334;48.696;2.114;2022-09-28T04:44:18;5.67;;;1.80;;
12535;SDS011;6334;48.696;2.114;2022-09-28T04:46:47;3.43;;;1.70;;
12535;SDS011;6334;48.696;2.114;2022-09-28T04:49:18;5.20;;;1.37;;
12535;SDS011;6334;48.696;2.114;2022-09-28T04:51:48;2.70;;;1.30;;
12535;SDS011;6334;48.696;2.114;2022-09-28T04:54:18;4.33;;;1.90;;
12535;SDS011;6334;48.696;2.114;2022-09-28T04:56:49;4.67;;;1.63;;
12535;SDS011;6334;48.696;2.114;2022-09-28T04:59:19;5.27;;;2.30;;
12535;SDS011;6334;48.696;2.114;2022-09-28T05:01:50;3.10;;;1.77;;
12535;SDS011;6334;48.696;2.114;2022-09-28T05:04:20;4.47;;;1.67;;
12535;SDS011;6334;48.696;2.114;2022-09-28T05:06:51;4.73;;;1.63;;
12535;SDS011;6334;48.696;2.114;2022-09-28T05:09:21;2.63;;;1.80;;
12535;SDS011;6334;48.696;2.114;2022-09-28T05:11:52;4.57;;;1.83;;
12535;SDS011;6334;48.696;2.114;2022-09-28T05:14:22;4.50;;;1.90;;
12535;SDS011;6334;48.696;2.114;2022-09-28T05:16:53;2.30;;;1.50;;
12535;SDS011;6334;48.696;2.114;2022-09-28T05:19:26;3.37;;;1.83;;
12535;SDS011;6334;48.696;2.114;2022-09-28T05:21:56;3.77;;;1.80;;
12535;SDS011;6334;48.696;2.114;2022-09-28T05:24:27;8.37;;;2.47;;
12535;SDS011;6334;48.696;2.114;2022-09-28T05:26:57;4.17;;;1.70;;
12535;SDS011;6334;48.696;2.114;2022-09-28T05:29:27;3.80;;;1.73;;
12535;SDS011;6334;48.696;2.114;2022-09-28T05:31:58;3.53;;;2.07;;
12535;SDS011;6334;48.696;2.114;2022-09-28T05:34:28;2.47;;;1.40;;
12535;SDS011;6334;48.696;2.114;2022-09-28T05:36:59;4.57;;;1.73;;
12535;SDS011;6334;48.696;2.114;2022-09-28T05:39:29;2.27;;;1.70;;
12535;SDS011;6334;48.696;2.114;2022-09-28T05:42:00;2.53;;;1.80;;
12535;SDS011;6334;48.696;2.114;2022-09-28T05:44:31;1.97;;;1.13;;
12535;SDS011;6334;48.696;2.114;2022-09-28T05:47:02;3.00;;;1.57;;
12535;SDS011;6334;48.696;2.114;2022-09-28T05:49:32;2.70;;;1.77;;
12535;SDS011;6334;48.696;2.114;2022-09-28T05:52:03;3.77;;;1.87;;
12535;SDS011;6334;48.696;2.114;2022-09-28T05:54:33;3.73;;;1.93;;
12535;SDS011;6334;48.696;2.114;2022-09-28T05:57:04;3.43;;;2.03;;
12535;SDS011;6334;48.696;2.114;2022-09-28T05:59:34;5.00;;;2.33;;
12535;SDS011;6334;48.696;2.114;2022-09-28T06:02:05;5.57;;;2.00;;
12535;SDS011;6334;48.696;2.114;2022-09-28T06:04:36;3.60;;;1.93;;
12535;SDS011;6334;48.696;2.114;2022-09-28T06:07:07;5.87;;;2.07;;
12535;SDS011;6334;48.696;2.114;2022-09-28T06:09:37;2.57;;;1.50;;
12535;SDS011;6334;48.696;2.114;2022-09-28T06:12:08;3.33;;;1.50;;
12535;SDS011;6334;48.696;2.114;2022-09-28T06:14:38;3.60;;;1.67;;
12535;SDS011;6334;48.696;2.114;2022-09-28T06:17:09;6.20;;;2.33;;
12535;SDS011;6334;48.696;2.114;2022-09-28T06:19:39;5.00;;;1.83;;
12535;SDS011;6334;48.696;2.114;2022-09-28T06:22:10;5.03;;;2.67;;
12535;SDS011;6334;48.696;2.114;2022-09-28T06:24:40;6.83;;;2.20;;
12535;SDS011;6334;48.696;2.114;2022-09-28T06:27:11;3.00;;;2.43;;
12535;SDS011;6334;48.696;2.114;2022-09-28T06:29:41;3.40;;;2.77;;
12535;SDS011;6334;48.696;2.114;2022-09-28T06:32:11;5.90;;;2.73;;
12535;SDS011;6334;48.696;2.114;2022-09-28T06:34:41;15.80;;;5.43;;
12535;SDS011;6334;48.696;2.114;2022-09-28T06:37:11;5.77;;;3.07;;
12535;SDS011;6334;48.696;2.114;2022-09-28T06:39:41;4.28;;;3.00;;
12535;SDS011;6334;48.696;2.114;2022-09-28T06:42:11;10.37;;;3.50;;
12535;SDS011;6334;48.696;2.114;2022-09-28T06:44:41;6.44;;;2.86;;
12535;SDS011;6334;48.696;2.114;2022-09-28T06:47:11;5.63;;;2.47;;
12535;SDS011;6334;48.696;2.114;2022-09-28T06:49:41;7.23;;;3.13;;
12535;SDS011;6334;48.696;2.114;2022-09-28T06:52:13;5.77;;;3.10;;
12535;SDS011;6334;48.696;2.114;2022-09-28T06:54:43;3.60;;;2.90;;
12535;SDS011;6334;48.696;2.114;2022-09-28T06:57:14;6.40;;;2.83;;
12535;SDS011;6334;48.696;2.114;2022-09-28T06:59:44;4.97;;;2.33;;
12535;SDS011;6334;48.696;2.114;2022-09-28T07:02:14;5.80;;;3.10;;
12535;SDS011;6334;48.696;2.114;2022-09-28T07:04:44;5.93;;;2.67;;
12535;SDS011;6334;48.696;2.114;2022-09-28T07:07:15;6.50;;;2.90;;
12535;SDS011;6334;48.696;2.114;2022-09-28T07:09:45;4.53;;;2.80;;
12535;SDS011;6334;48.696;2.114;2022-09-28T07:12:16;6.70;;;3.20;;
12535;SDS011;6334;48.696;2.114;2022-09-28T07:14:46;5.23;;;3.13;;
12535;SDS011;6334;48.696;2.114;2022-09-28T07:17:17;6.40;;;2.83;;
12535;SDS011;6334;48.696;2.114;2022-09-28T07:19:47;5.07;;;2.97;;
12535;SDS011;6334;48.696;2.114;2022-09-28T07:22:20;7.13;;;2.80;;
12535;SDS011;6334;48.696;2.114;2022-09-28T07:24:51;5.17;;;2.90;;
12535;SDS011;6334;48.696;2.114;2022-09-28T07:27:21;4.57;;;2.80;;
12535;SDS011;6334;48.696;2.114;2022-09-28T07:29:52;4.23;;;2.77;;
12535;SDS011;6334;48.696;2.114;2022-09-28T07:32:22;5.17;;;2.40;;
12535;SDS011;6334;48.696;2.114;2022-09-28T07:34:53;4.13;;;2.53;;
12535;SDS011;6334;48.696;2.114;2022-09-28T07:37:23;3.97;;;2.70;;
12535;SDS011;6334;48.696;2.114;2022-09-28T07:39:54;5.40;;;2.67;;
12535;SDS011;6334;48.696;2.114;2022-09-28T07:42:42;7.70;;;2.77;;
12535;SDS011;6334;48.696;2.114;2022-09-28T07:45:12;9.53;;;2.60;;
12535;SDS011;6334;48.696;2.114;2022-09-28T07:47:43;3.03;;;1.97;;
12535;SDS011;6334;48.696;2.114;2022-09-28T07:50:13;5.13;;;2.47;;
12535;SDS011;6334;48.696;2.114;2022-09-28T07:52:44;8.00;;;2.40;;
12535;SDS011;6334;48.696;2.114;2022-09-28T07:55:14;5.80;;;2.70;;
12535;SDS011;6334;48.696;2.114;2022-09-28T07:57:45;4.50;;;2.40;;
12535;SDS011;6334;48.696;2.114;2022-09-28T08:00:15;4.93;;;2.83;;
12535;SDS011;6334;48.696;2.114;2022-09-28T08:02:46;5.87;;;2.43;;
12535;SDS011;6334;48.696;2.114;2022-09-28T08:05:16;3.97;;;2.47;;
12535;SDS011;6334;48.696;2.114;2022-09-28T08:07:47;6.17;;;3.17;;
12535;SDS011;6334;48.696;2.114;2022-09-28T08:10:17;5.87;;;2.30;;
12535;SDS011;6334;48.696;2.114;2022-09-28T08:12:47;4.87;;;2.27;;
12535;SDS011;6334;48.696;2.114;2022-09-28T08:15:18;4.47;;;2.33;;
12535;SDS011;6334;48.696;2.114;2022-09-28T08:17:49;3.07;;;2.30;;
12535;SDS011;6334;48.696;2.114;2022-09-28T08:20:19;3.20;;;2.07;;
12535;SDS011;6334;48.696;2.114;2022-09-28T08:23:08;5.23;;;2.33;;
12535;SDS011;6334;48.696;2.114;2022-09-28T08:25:38;5.43;;;2.97;;
12535;SDS011;6334;48.696;2.114;2022-09-28T08:28:08;4.87;;;2.10;;
12535;SDS011;6334;48.696;2.114;2022-09-28T08:30:41;5.13;;;2.37;;
12535;SDS011;6334;48.696;2.114;2022-09-28T08:33:15;6.83;;;2.90;;
12535;SDS011;6334;48.696;2.114;2022-09-28T08:35:42;6.30;;;2.70;;
12535;SDS011;6334;48.696;2.114;2022-09-28T08:38:12;4.27;;;2.17;;
12535;SDS011;6334;48.696;2.114;2022-09-28T08:46:03;7.43;;;2.57;;
12535;SDS011;6334;48.696;2.114;2022-09-28T08:48:35;6.07;;;2.40;;
12535;SDS011;6334;48.696;2.114;2022-09-28T08:51:17;5.67;;;2.60;;
12535;SDS011;6334;48.696;2.114;2022-09-28T08:59:13;5.60;;;3.07;;
12535;SDS011;6334;48.696;2.114;2022-09-28T09:01:47;4.30;;;2.23;;
12535;SDS011;6334;48.696;2.114;2022-09-28T09:04:17;6.87;;;2.87;;
12535;SDS011;6334;48.696;2.114;2022-09-28T09:12:16;2.10;;;1.87;;
12535;SDS011;6334;48.696;2.114;2022-09-28T09:14:53;3.37;;;2.10;;
12535;SDS011;6334;48.696;2.114;2022-09-28T09:23:03;6.23;;;2.57;;
12535;SDS011;6334;48.696;2.114;2022-09-28T09:25:30;7.27;;;2.80;;
12535;SDS011;6334;48.696;2.114;2022-09-28T09:31:07;5.83;;;2.30;;
12535;SDS011;6334;48.696;2.114;2022-09-28T09:36:36;6.57;;;2.70;;
12535;SDS011;6334;48.696;2.114;2022-09-28T09:39:26;3.87;;;2.00;;
12535;SDS011;6334;48.696;2.114;2022-09-28T09:44:58;6.63;;;2.53;;
12535;SDS011;6334;48.696;2.114;2022-09-28T09:50:22;5.00;;;2.10;;
12535;SDS011;6334;48.696;2.114;2022-09-28T09:55:39;2.73;;;1.80;;
12535;SDS011;6334;48.696;2.114;2022-09-28T09:58:18;3.60;;;1.93;;
12535;SDS011;6334;48.696;2.114;2022-09-28T10:01:07;3.97;;;1.60;;
12535;SDS011;6334;48.696;2.114;2022-09-28T10:03:38;5.33;;;1.83;;
12535;SDS011;6334;48.696;2.114;2022-09-28T10:06:10;4.80;;;2.40;;
12535;SDS011;6334;48.696;2.114;2022-09-28T10:08:43;3.07;;;1.57;;
12535;SDS011;6334;48.696;2.114;2022-09-28T10:11:16;3.40;;;1.50;;
12535;SDS011;6334;48.696;2.114;2022-09-28T10:13:47;3.73;;;2.20;;
12535;SDS011;6334;48.696;2.114;2022-09-28T10:16:18;3.97;;;2.20;;
12535;SDS011;6334;48.696;2.114;2022-09-28T10:18:48;8.03;;;2.40;;
12535;SDS011;6334;48.696;2.114;2022-09-28T10:21:19;4.17;;;1.97;;
12535;SDS011;6334;48.696;2.114;2022-09-28T10:23:53;5.03;;;1.73;;
12535;SDS011;6334;48.696;2.114;2022-09-28T10:26:21;5.47;;;1.87;;
12535;SDS011;6334;48.696;2.114;2022-09-28T10:28:56;5.40;;;2.40;;
12535;SDS011;6334;48.696;2.114;2022-09-28T10:31:33;5.40;;;2.17;;
12535;SDS011;6334;48.696;2.114;2022-09-28T10:34:03;2.80;;;1.80;;
12535;SDS011;6334;48.696;2.114;2022-09-28T10:36:43;8.93;;;2.40;;
12535;SDS011;6334;48.696;2.114;2022-09-28T10:39:27;5.33;;;1.93;;
12535;SDS011;6334;48.696;2.114;2022-09-28T10:41:57;6.00;;;2.07;;
12535;SDS011;6334;48.696;2.114;2022-09-28T10:44:27;5.13;;;1.97;;
12535;SDS011;6334;48.696;2.114;2022-09-28T10:47:04;1.80;;;1.43;;
12535;SDS011;6334;48.696;2.114;2022-09-28T10:49:40;4.83;;;1.43;;
12535;SDS011;6334;48.696;2.114;2022-09-28T10:54:58;6.00;;;1.80;;
12535;SDS011;6334;48.696;2.114;2022-09-28T10:57:34;1.63;;;1.43;;
12535;SDS011;6334;48.696;2.114;2022-09-28T11:00:04;4.60;;;1.37;;
12535;SDS011;6334;48.696;2.114;2022-09-28T11:02:35;4.93;;;1.90;;
12535;SDS011;6334;48.696;2.114;2022-09-28T11:05:06;3.47;;;1.90;;
12535;SDS011;6334;48.696;2.114;2022-09-28T11:07:46;4.73;;;1.43;;
12535;SDS011;6334;48.696;2.114;2022-09-28T11:10:17;3.83;;;1.77;;
12535;SDS011;6334;48.696;2.114;2022-09-28T11:12:41;2.70;;;1.60;;
12535;SDS011;6334;48.696;2.114;2022-09-28T11:15:17;7.53;;;2.27;;
12535;SDS011;6334;48.696;2.114;2022-09-28T11:17:49;2.30;;;1.73;;
12535;SDS011;6334;48.696;2.114;2022-09-28T11:22:54;3.60;;;1.73;;
12535;SDS011;6334;48.696;2.114;2022-09-28T11:25:26;4.12;;;2.03;;
12535;SDS011;6334;48.696;2.114;2022-09-28T11:27:58;5.40;;;2.00;;
12535;SDS011;6334;48.696;2.114;2022-09-28T11:30:44;5.47;;;1.93;;
12535;SDS011;6334;48.696;2.114;2022-09-28T11:33:19;3.40;;;1.77;;
12535;SDS011;6334;48.696;2.114;2022-09-28T11:36:12;3.13;;;1.80;;
12535;SDS011;6334;48.696;2.114;2022-09-28T11:44:44;3.67;;;1.43;;
12535;SDS011;6334;48.696;2.114;2022-09-28T11:49:47;4.63;;;2.23;;
12535;SDS011;6334;48.696;2.114;2022-09-28T11:52:20;6.13;;;3.00;;
12535;SDS011;6334;48.696;2.114;2022-09-28T11:54:59;4.03;;;2.20;;
12535;SDS011;6334;48.696;2.114;2022-09-28T11:57:37;6.07;;;2.07;;
12535;SDS011;6334;48.696;2.114;2022-09-28T12:00:10;4.03;;;1.93;;
12535;SDS011;6334;48.696;2.114;2022-09-28T12:05:38;4.50;;;2.03;;
12535;SDS011;6334;48.696;2.114;2022-09-28T12:10:53;3.53;;;2.13;;
12535;SDS011;6334;48.696;2.114;2022-09-28T12:13:35;4.43;;;2.50;;
12535;SDS011;6334;48.696;2.114;2022-09-28T12:16:05;3.70;;;1.83;;
12535;SDS011;6334;48.696;2.114;2022-09-28T12:18:43;3.17;;;1.67;;
12535;SDS011;6334;48.696;2.114;2022-09-28T12:21:42;4.10;;;2.07;;
12535;SDS011;6334;48.696;2.114;2022-09-28T12:26:59;4.13;;;1.23;;
12535;SDS011;6334;48.696;2.114;2022-09-28T12:29:40;5.27;;;2.07;;
12535;SDS011;6334;48.696;2.114;2022-09-28T12:32:21;5.57;;;1.60;;
12535;SDS011;6334;48.696;2.114;2022-09-28T12:34:50;3.30;;;1.70;;
12535;SDS011;6334;48.696;2.114;2022-09-28T12:40:18;4.30;;;2.20;;
12535;SDS011;6334;48.696;2.114;2022-09-28T12:45:58;2.37;;;1.63;;
12535;SDS011;6334;48.696;2.114;2022-09-28T12:51:02;2.07;;;1.37;;
12535;SDS011;6334;48.696;2.114;2022-09-28T12:53:37;4.43;;;1.47;;
12535;SDS011;6334;48.696;2.114;2022-09-28T12:56:25;4.13;;;1.83;;
12535;SDS011;6334;48.696;2.114;2022-09-28T13:07:02;2.93;;;1.40;;
12535;SDS011;6334;48.696;2.114;2022-09-28T13:09:40;3.40;;;1.73;;
12535;SDS011;6334;48.696;2.114;2022-09-28T13:15:07;4.13;;;1.53;;
12535;SDS011;6334;48.696;2.114;2022-09-28T13:17:39;3.13;;;1.03;;
12535;SDS011;6334;48.696;2.114;2022-09-28T13:23:14;5.40;;;1.77;;
12535;SDS011;6334;48.696;2.114;2022-09-28T13:25:43;3.27;;;1.30;;
12535;SDS011;6334;48.696;2.114;2022-09-28T13:28:11;2.83;;;1.33;;
12535;SDS011;6334;48.696;2.114;2022-09-28T13:30:41;2.27;;;1.20;;
12535;SDS011;6334;48.696;2.114;2022-09-28T13:33:16;4.70;;;1.87;;
12535;SDS011;6334;48.696;2.114;2022-09-28T13:35:47;3.03;;;1.50;;
12535;SDS011;6334;48.696;2.114;2022-09-28T13:41:08;2.53;;;1.43;;
12535;SDS011;6334;48.696;2.114;2022-09-28T13:46:28;2.33;;;1.60;;
12535;SDS011;6334;48.696;2.114;2022-09-28T13:55:09;1.73;;;1.57;;
12535;SDS011;6334;48.696;2.114;2022-09-28T13:57:03;4.30;;;1.83;;
12535;SDS011;6334;48.696;2.114;2022-09-28T14:04:59;2.20;;;1.37;;
12535;SDS011;6334;48.696;2.114;2022-09-28T14:10:18;4.03;;;1.73;;
12535;SDS011;6334;48.696;2.114;2022-09-28T14:13:05;5.80;;;1.80;;
12535;SDS011;6334;48.696;2.114;2022-09-28T14:18:11;2.93;;;1.73;;
12535;SDS011;6334;48.696;2.114;2022-09-28T14:20:40;3.03;;;1.43;;
12535;SDS011;6334;48.696;2.114;2022-09-28T14:25:45;2.33;;;1.40;;
12535;SDS011;6334;48.696;2.114;2022-09-28T14:30:49;3.57;;;1.60;;
12535;SDS011;6334;48.696;2.114;2022-09-28T14:38:27;1.60;;;1.20;;
12535;SDS011;6334;48.696;2.114;2022-09-28T14:48:53;2.40;;;1.43;;
12535;SDS011;6334;48.696;2.114;2022-09-28T14:56:40;2.70;;;1.30;;
12535;SDS011;6334;48.696;2.114;2022-09-28T14:59:16;4.53;;;0.90;;
12535;SDS011;6334;48.696;2.114;2022-09-28T15:01:49;1.20;;;1.20;;
12535;SDS011;6334;48.696;2.114;2022-09-28T15:04:18;1.87;;;1.40;;
12535;SDS011;6334;48.696;2.114;2022-09-28T15:06:49;2.73;;;1.70;;
12535;SDS011;6334;48.696;2.114;2022-09-28T15:09:32;1.30;;;1.27;;
12535;SDS011;6334;48.696;2.114;2022-09-28T15:14:39;1.80;;;1.20;;
12535;SDS011;6334;48.696;2.114;2022-09-28T15:17:10;2.10;;;1.43;;
12535;SDS011;6334;48.696;2.114;2022-09-28T15:22:34;1.00;;;1.00;;
12535;SDS011;6334;48.696;2.114;2022-09-28T15:25:11;2.00;;;1.10;;
12535;SDS011;6334;48.696;2.114;2022-09-28T15:27:35;1.33;;;1.23;;
12535;SDS011;6334;48.696;2.114;2022-09-28T15:30:19;1.00;;;1.00;;
12535;SDS011;6334;48.696;2.114;2022-09-28T15:32:47;1.70;;;1.47;;
12535;SDS011;6334;48.696;2.114;2022-09-28T15:35:18;2.07;;;1.17;;
12535;SDS011;6334;48.696;2.114;2022-09-28T15:37:48;2.53;;;1.00;;
12535;SDS011;6334;48.696;2.114;2022-09-28T15:40:25;1.50;;;0.97;;
12535;SDS011;6334;48.696;2.114;2022-09-28T15:42:54;0.93;;;0.83;;
12535;SDS011;6334;48.696;2.114;2022-09-28T15:45:28;1.13;;;1.10;;
12535;SDS011;6334;48.696;2.114;2022-09-28T15:48:16;3.27;;;1.30;;
12535;SDS011;6334;48.696;2.114;2022-09-28T15:50:31;3.37;;;1.20;;
12535;SDS011;6334;48.696;2.114;2022-09-28T15:53:02;2.10;;;1.00;;
12535;SDS011;6334;48.696;2.114;2022-09-28T15:55:36;0.90;;;0.90;;
12535;SDS011;6334;48.696;2.114;2022-09-28T15:58:24;4.60;;;1.47;;
12535;SDS011;6334;48.696;2.114;2022-09-28T16:00:33;1.23;;;1.00;;
12535;SDS011;6334;48.696;2.114;2022-09-28T16:08:15;2.27;;;1.40;;
12535;SDS011;6334;48.696;2.114;2022-09-28T16:10:53;1.30;;;1.20;;
12535;SDS011;6334;48.696;2.114;2022-09-28T16:13:28;2.13;;;1.33;;
12535;SDS011;6334;48.696;2.114;2022-09-28T16:15:59;1.70;;;1.60;;
12535;SDS011;6334;48.696;2.114;2022-09-28T16:18:29;2.60;;;1.73;;
12535;SDS011;6334;48.696;2.114;2022-09-28T16:21:19;2.67;;;1.73;;
12535;SDS011;6334;48.696;2.114;2022-09-28T16:23:51;4.23;;;1.83;;
12535;SDS011;6334;48.696;2.114;2022-09-28T16:26:26;1.40;;;1.30;;
12535;SDS011;6334;48.696;2.114;2022-09-28T16:28:54;1.23;;;1.20;;
12535;SDS011;6334;48.696;2.114;2022-09-28T16:31:26;1.40;;;1.30;;
12535;SDS011;6334;48.696;2.114;2022-09-28T16:34:07;2.70;;;1.70;;
12535;SDS011;6334;48.696;2.114;2022-09-28T16:36:40;1.10;;;1.10;;
12535;SDS011;6334;48.696;2.114;2022-09-28T16:39:12;2.33;;;1.70;;
12535;SDS011;6334;48.696;2.114;2022-09-28T16:41:47;1.47;;;1.17;;
12535;SDS011;6334;48.696;2.114;2022-09-28T16:44:18;2.80;;;1.80;;
12535;SDS011;6334;48.696;2.114;2022-09-28T16:46:48;3.77;;;2.10;;
12535;SDS011;6334;48.696;2.114;2022-09-28T16:49:18;3.13;;;1.63;;
12535;SDS011;6334;48.696;2.114;2022-09-28T16:51:48;2.40;;;1.67;;
12535;SDS011;6334;48.696;2.114;2022-09-28T16:54:20;1.03;;;1.03;;
12535;SDS011;6334;48.696;2.114;2022-09-28T16:57:08;6.60;;;2.10;;
12535;SDS011;6334;48.696;2.114;2022-09-28T16:59:40;5.07;;;2.65;;
12535;SDS011;6334;48.696;2.114;2022-09-28T17:02:14;2.70;;;1.90;;
12535;SDS011;6334;48.696;2.114;2022-09-28T17:04:45;2.20;;;1.73;;
12535;SDS011;6334;48.696;2.114;2022-09-28T17:07:16;2.87;;;2.20;;
12535;SDS011;6334;48.696;2.114;2022-09-28T17:09:46;1.50;;;1.37;;
12535;SDS011;6334;48.696;2.114;2022-09-28T17:12:18;3.67;;;2.10;;
12535;SDS011;6334;48.696;2.114;2022-09-28T17:14:47;2.00;;;1.85;;
12535;SDS011;6334;48.696;2.114;2022-09-28T17:17:17;3.47;;;1.83;;
12535;SDS011;6334;48.696;2.114;2022-09-28T17:19:49;2.13;;;1.97;;
12535;SDS011;6334;48.696;2.114;2022-09-28T17:22:20;2.40;;;2.10;;
12535;SDS011;6334;48.696;2.114;2022-09-28T17:24:50;2.80;;;2.50;;
12535;SDS011;6334;48.696;2.114;2022-09-28T17:27:21;3.10;;;2.80;;
12535;SDS011;6334;48.696;2.114;2022-09-28T17:29:51;4.33;;;3.00;;
12535;SDS011;6334;48.696;2.114;2022-09-28T17:32:21;3.70;;;2.83;;
12535;SDS011;6334;48.696;2.114;2022-09-28T17:34:52;2.30;;;2.20;;
12535;SDS011;6334;48.696;2.114;2022-09-28T17:37:22;2.10;;;2.00;;
12535;SDS011;6334;48.696;2.114;2022-09-28T17:39:53;3.13;;;2.17;;
12535;SDS011;6334;48.696;2.114;2022-09-28T17:42:24;3.10;;;2.17;;
12535;SDS011;6334;48.696;2.114;2022-09-28T17:44:54;5.13;;;2.43;;
12535;SDS011;6334;48.696;2.114;2022-09-28T17:47:24;3.10;;;2.10;;
12535;SDS011;6334;48.696;2.114;2022-09-28T17:49:55;4.07;;;2.57;;
12535;SDS011;6334;48.696;2.114;2022-09-28T17:52:25;6.87;;;3.97;;
12535;SDS011;6334;48.696;2.114;2022-09-28T17:54:56;6.80;;;4.07;;
12535;SDS011;6334;48.696;2.114;2022-09-28T17:57:26;5.70;;;3.70;;
12535;SDS011;6334;48.696;2.114;2022-09-28T17:59:57;14.07;;;7.43;;
12535;SDS011;6334;48.696;2.114;2022-09-28T18:02:27;10.93;;;6.43;;
12535;SDS011;6334;48.696;2.114;2022-09-28T18:04:58;7.90;;;5.10;;
12535;SDS011;6334;48.696;2.114;2022-09-28T18:07:28;5.10;;;4.10;;
12535;SDS011;6334;48.696;2.114;2022-09-28T18:09:59;5.83;;;4.07;;
12535;SDS011;6334;48.696;2.114;2022-09-28T18:12:29;5.70;;;4.03;;
12535;SDS011;6334;48.696;2.114;2022-09-28T18:15:00;4.10;;;3.50;;
12535;SDS011;6334;48.696;2.114;2022-09-28T18:17:30;3.57;;;3.27;;
12535;SDS011;6334;48.696;2.114;2022-09-28T18:20:01;7.20;;;4.00;;